createdAt,value
2023-06-24T00:03:04.599Z,68.78
2023-06-24T00:07:08.483Z,68.63
2023-06-24T00:11:14.394Z,68.68
2023-06-24T00:15:17.824Z,69.21
2023-06-24T00:19:22.388Z,68.84
2023-06-24T00:23:27.125Z,68.81
2023-06-24T00:27:32.085Z,68.80
2023-06-24T00:31:35.192Z,68.70
2023-06-24T00:35:38.784Z,68.72
2023-06-24T00:39:42.576Z,69.01
2023-06-24T00:43:47.648Z,68.57
2023-06-24T00:47:51.433Z,67.93
2023-06-24T00:51:54.455Z,68.49
2023-06-24T00:56:04.268Z,68.03
2023-06-24T01:00:15.136Z,68.52
2023-06-24T01:04:19.339Z,68.22
2023-06-24T01:08:24.019Z,68.65
2023-06-24T01:12:27.465Z,68.44
2023-06-24T01:16:39.261Z,68.26
2023-06-24T01:20:49.038Z,68.92
2023-06-24T01:25:07.146Z,68.21
2023-06-24T01:29:39.347Z,68.55
2023-06-24T01:33:51.764Z,69.29
2023-06-24T01:37:57.555Z,69.74
2023-06-24T01:42:06.204Z,70.31
2023-06-24T01:46:12.252Z,70.08
2023-06-24T01:50:22.406Z,70.25
2023-06-24T01:54:29.935Z,70.03
2023-06-24T01:58:36.558Z,70.51
2023-06-24T02:02:42.201Z,70.48
2023-06-24T02:06:48.876Z,70.83
2023-06-24T02:10:53.733Z,70.72
2023-06-24T02:14:58.740Z,71.33
2023-06-24T02:19:03.982Z,71.43
2023-06-24T02:23:10.820Z,70.99
2023-06-24T02:27:15.645Z,71.48
2023-06-24T02:31:20.322Z,72.15
2023-06-24T02:35:23.698Z,72.10
2023-06-24T02:39:28.537Z,71.40
2023-06-24T02:43:31.833Z,72.21
2023-06-24T02:47:37.017Z,72.08
2023-06-24T02:51:41.906Z,71.84
2023-06-24T02:55:47.225Z,72.28
2023-06-24T02:59:50.265Z,72.30
2023-06-24T03:07:59.960Z,72.68
2023-06-24T03:12:05.202Z,72.29
2023-06-24T03:16:13.818Z,72.97
2023-06-24T03:20:17.038Z,72.41
2023-06-24T03:24:20.953Z,72.92
2023-06-24T03:28:26.875Z,72.86
2023-06-24T03:32:30.494Z,72.45
2023-06-24T03:36:36.571Z,73.13
2023-06-24T03:40:40.090Z,72.90
2023-06-24T03:44:45.802Z,73.06
2023-06-24T03:48:51.175Z,72.88
2023-06-24T03:52:54.655Z,73.07
2023-06-24T03:56:57.885Z,73.67
2023-06-24T04:01:05.706Z,72.99
2023-06-24T04:05:10.006Z,72.92
2023-06-24T04:09:13.571Z,72.89
2023-06-24T04:13:16.856Z,73.34
2023-06-24T04:17:21.381Z,73.21
2023-06-24T04:21:24.586Z,72.94
2023-06-24T04:25:28.560Z,73.44
2023-06-24T04:29:31.983Z,73.28
2023-06-24T04:33:36.494Z,73.06
2023-06-24T04:37:39.745Z,73.05
2023-06-24T04:41:43.013Z,73.40
2023-06-24T04:45:46.066Z,73.24
2023-06-24T04:49:51.015Z,73.00
2023-06-24T04:53:54.925Z,73.28
2023-06-24T04:57:58.627Z,73.34
2023-06-24T05:02:02.505Z,73.25
2023-06-24T05:06:07.718Z,73.30
2023-06-24T05:10:11.214Z,73.54
2023-06-24T05:14:15.696Z,73.91
2023-06-24T05:18:19.017Z,73.18
2023-06-24T05:22:24.007Z,73.37
2023-06-24T05:26:27.055Z,73.49
2023-06-24T05:30:30.911Z,73.99
2023-06-24T05:34:35.194Z,73.45
2023-06-24T05:38:40.063Z,73.31
2023-06-24T05:42:43.400Z,73.39
2023-06-24T05:46:46.948Z,73.49
2023-06-24T05:50:50.350Z,73.66
2023-06-24T05:54:55.282Z,73.68
2023-06-24T05:58:58.643Z,73.55
2023-06-24T06:03:01.973Z,73.37
2023-06-24T06:07:06.376Z,73.61
2023-06-24T06:11:11.077Z,73.17
2023-06-24T06:15:14.420Z,73.65
2023-06-24T06:19:17.698Z,73.43
2023-06-24T06:23:21.058Z,73.25
2023-06-24T06:27:25.486Z,73.43
2023-06-24T06:31:29.344Z,73.20
2023-06-24T06:35:34.101Z,73.11
2023-06-24T06:39:37.531Z,73.14
2023-06-24T06:43:42.242Z,73.38
2023-06-24T06:47:45.545Z,73.11
2023-06-24T06:51:48.774Z,73.26
2023-06-24T06:55:52.099Z,73.59
2023-06-24T06:59:58.059Z,73.44
2023-06-24T07:04:01.540Z,73.50
2023-06-24T07:08:05.944Z,73.48
2023-06-24T07:12:10.642Z,73.21
2023-06-24T07:16:15.620Z,72.99
2023-06-24T07:20:18.838Z,72.88
2023-06-24T07:24:22.680Z,73.03
2023-06-24T07:28:25.923Z,72.94
2023-06-24T07:32:31.084Z,72.48
2023-06-24T07:36:34.281Z,72.30
2023-06-24T07:40:37.598Z,71.84
2023-06-24T07:44:41.365Z,72.35
2023-06-24T07:48:46.300Z,71.73
2023-06-24T07:52:49.489Z,72.38
2023-06-24T07:56:52.578Z,71.75
2023-06-24T08:00:56.279Z,71.64
2023-06-24T08:05:00.928Z,71.53
2023-06-24T08:09:04.325Z,71.54
2023-06-24T08:13:07.880Z,71.45
2023-06-24T08:17:11.896Z,71.55
2023-06-24T08:21:16.952Z,71.81
2023-06-24T08:25:20.507Z,71.65
2023-06-24T08:29:24.092Z,72.05
2023-06-24T08:33:27.691Z,71.94
2023-06-24T08:37:32.381Z,72.37
2023-06-24T08:41:35.748Z,72.14
2023-06-24T08:45:39.707Z,72.08
2023-06-24T08:49:49.860Z,71.91
2023-06-24T08:53:56.186Z,72.02
2023-06-24T08:57:59.572Z,71.69
2023-06-24T09:02:03.073Z,71.18
2023-06-24T09:06:06.204Z,71.49
2023-06-24T09:10:11.592Z,70.55
2023-06-24T09:14:15.444Z,70.99
2023-06-24T09:18:19.585Z,69.81
2023-06-24T09:22:22.901Z,70.11
2023-06-24T09:26:28.734Z,70.36
2023-06-24T09:30:32.890Z,70.38
2023-06-24T09:34:36.844Z,70.25
2023-06-24T09:38:42.478Z,70.78
2023-06-24T09:42:53.636Z,70.56
2023-06-24T09:46:57.960Z,69.69
2023-06-24T09:51:03.267Z,68.76
2023-06-24T09:55:07.916Z,68.61
2023-06-24T09:59:14.678Z,68.33
2023-06-24T10:03:18.157Z,68.78
2023-06-24T10:07:23.692Z,67.85
2023-06-24T10:11:27.545Z,67.47
2023-06-24T10:15:32.346Z,68.62
2023-06-24T10:19:41.984Z,68.44
2023-06-24T10:23:55.338Z,68.72
2023-06-24T10:27:59.368Z,68.98
2023-06-24T10:32:09.172Z,68.41
2023-06-24T10:36:34.012Z,68.14
2023-06-24T10:40:39.856Z,67.64
2023-06-24T10:44:48.472Z,67.30
2023-06-24T10:48:52.977Z,67.08
2023-06-24T10:52:57.717Z,65.98
2023-06-24T10:57:01.464Z,66.11
2023-06-24T11:01:11.473Z,66.22
2023-06-24T11:05:16.512Z,64.91
2023-06-24T11:09:19.818Z,64.74
2023-06-24T11:13:23.485Z,64.69
2023-06-24T11:17:27.030Z,63.46
2023-06-24T11:21:33.624Z,63.68
2023-06-24T11:25:42.780Z,64.31
2023-06-24T11:29:47.248Z,63.36
2023-06-24T11:33:54.070Z,62.02
2023-06-24T11:38:02.549Z,62.08
2023-06-24T11:42:09.240Z,62.97
2023-06-24T11:46:12.336Z,62.13
2023-06-24T11:50:15.885Z,61.80
2023-06-24T11:54:22.657Z,62.51
2023-06-24T11:58:26.155Z,62.70
2023-06-24T12:02:31.401Z,62.30
2023-06-24T12:06:34.675Z,62.87
2023-06-24T12:10:40.980Z,62.72
2023-06-24T12:14:45.307Z,61.97
2023-06-24T12:18:51.131Z,59.57
2023-06-24T12:22:54.478Z,61.37
2023-06-24T12:27:01.706Z,61.98
2023-06-24T12:31:05.408Z,61.68
2023-06-24T12:35:10.878Z,62.23
2023-06-24T12:39:18.997Z,61.62
2023-06-24T12:43:25.713Z,62.71
2023-06-24T12:47:29.555Z,62.04
2023-06-24T12:51:33.095Z,61.31
2023-06-24T12:55:38.623Z,60.57
2023-06-24T12:59:43.791Z,59.97
2023-06-24T13:03:47.407Z,61.62
2023-06-24T13:07:51.383Z,59.70
2023-06-24T13:11:54.528Z,59.75
2023-06-24T13:15:59.285Z,59.85
2023-06-24T13:20:03.034Z,57.52
2023-06-24T13:24:07.643Z,54.84
2023-06-24T13:28:11.386Z,58.05
2023-06-24T13:32:16.486Z,53.79
2023-06-24T13:36:33.493Z,53.79
2023-06-24T13:40:37.443Z,49.61
2023-06-24T13:44:41.882Z,52.49
2023-06-24T13:48:46.361Z,51.41
2023-06-24T13:52:52.280Z,51.78
2023-06-24T13:56:56.059Z,51.51
2023-06-24T14:01:00.421Z,51.72
2023-06-24T14:05:05.551Z,49.87
2023-06-24T14:09:09.271Z,50.39
2023-06-24T14:13:13.105Z,49.44
2023-06-24T14:17:16.309Z,47.26
2023-06-24T14:21:21.144Z,48.98
2023-06-24T14:25:25.573Z,47.31
2023-06-24T14:29:31.592Z,47.98
2023-06-24T14:33:35.052Z,46.24
2023-06-24T14:37:39.919Z,46.04
2023-06-24T14:41:43.540Z,43.19
2023-06-24T14:45:46.878Z,43.93
2023-06-24T14:49:51.769Z,43.83
2023-06-24T14:53:56.582Z,44.41
2023-06-24T14:58:00.318Z,44.44
2023-06-24T15:02:04.000Z,45.73
2023-06-24T15:06:08.137Z,42.81
2023-06-24T15:10:13.312Z,45.07
2023-06-24T15:14:16.691Z,43.55
2023-06-24T15:18:20.399Z,44.10
2023-06-24T15:22:24.775Z,45.42
2023-06-24T15:26:29.754Z,45.24
2023-06-24T15:30:33.165Z,44.22
2023-06-24T15:34:37.010Z,44.63
2023-06-24T15:38:41.307Z,46.14
2023-06-24T15:42:45.833Z,44.60
2023-06-24T15:46:49.184Z,43.17
2023-06-24T15:50:52.969Z,44.80
2023-06-24T15:54:56.321Z,44.11
2023-06-24T15:59:00.669Z,44.35
2023-06-24T16:03:04.044Z,42.57
2023-06-24T16:07:07.885Z,43.16
2023-06-24T16:11:11.157Z,42.82
2023-06-24T16:15:15.903Z,41.86
2023-06-24T16:19:19.097Z,42.50
2023-06-24T16:23:22.390Z,43.31
2023-06-24T16:27:26.089Z,42.26
2023-06-24T16:31:30.714Z,43.37
2023-06-24T16:35:34.480Z,41.80
2023-06-24T16:39:37.680Z,42.93
2023-06-24T16:43:41.812Z,44.00
2023-06-24T16:47:47.366Z,44.17
2023-06-24T16:51:51.261Z,45.30
2023-06-24T16:55:54.504Z,46.34
2023-06-24T16:59:57.883Z,47.48
2023-06-24T17:04:02.721Z,46.27
2023-06-24T17:08:08.094Z,46.32
2023-06-24T17:12:11.147Z,46.93
2023-06-24T17:16:15.165Z,47.41
2023-06-24T17:20:19.788Z,48.39
2023-06-24T17:24:23.541Z,48.88
2023-06-24T17:28:26.851Z,49.42
2023-06-24T17:32:30.215Z,49.63
2023-06-24T17:36:34.799Z,49.48
2023-06-24T17:40:38.468Z,50.11
2023-06-24T17:44:42.357Z,50.95
2023-06-24T17:48:45.931Z,51.16
2023-06-24T17:52:50.893Z,51.75
2023-06-24T17:56:55.004Z,51.78
2023-06-24T18:00:58.461Z,52.65
2023-06-24T18:05:02.324Z,53.44
2023-06-24T18:09:10.795Z,53.47
2023-06-24T18:13:14.103Z,54.99
2023-06-24T18:17:17.317Z,54.68
2023-06-24T18:21:20.546Z,55.77
2023-06-24T18:25:26.350Z,56.12
2023-06-24T18:29:30.442Z,56.27
2023-06-24T18:33:36.170Z,56.36
2023-06-24T18:37:39.609Z,56.79
2023-06-24T18:41:44.266Z,56.34
2023-06-24T18:45:47.862Z,56.87
2023-06-24T18:49:50.803Z,56.89
2023-06-24T18:53:54.216Z,57.39
2023-06-24T18:57:59.252Z,57.51
2023-06-24T19:02:03.009Z,57.53
2023-06-24T19:06:06.840Z,57.34
2023-06-24T19:10:10.893Z,57.78
2023-06-24T19:14:19.293Z,57.50
2023-06-24T19:18:22.851Z,58.13
2023-06-24T19:22:27.192Z,57.92
2023-06-24T19:26:33.262Z,58.17
2023-06-24T19:30:38.137Z,58.95
2023-06-24T19:34:42.308Z,58.64
2023-06-24T19:38:45.917Z,59.44
2023-06-24T19:42:50.197Z,59.18
2023-06-24T19:46:54.896Z,59.71
2023-06-24T19:50:58.881Z,60.04
2023-06-24T19:55:04.001Z,60.46
2023-06-24T19:59:07.482Z,60.77
2023-06-24T20:03:12.048Z,61.30
2023-06-24T20:07:17.526Z,61.51
2023-06-24T20:11:21.152Z,61.44
2023-06-24T20:15:25.270Z,62.21
2023-06-24T20:19:30.041Z,62.98
2023-06-24T20:23:33.562Z,63.01
2023-06-24T20:27:36.642Z,63.02
2023-06-24T20:31:40.100Z,63.64
2023-06-24T20:35:44.575Z,63.56
2023-06-24T20:39:48.073Z,63.88
2023-06-24T20:43:51.385Z,64.09
2023-06-24T20:47:56.423Z,64.32
2023-06-24T20:52:01.886Z,64.04
2023-06-24T20:56:05.514Z,63.90
2023-06-24T21:00:10.006Z,63.35
2023-06-24T21:04:14.456Z,63.58
2023-06-24T21:08:21.615Z,63.68
2023-06-24T21:12:25.461Z,64.07
2023-06-24T21:16:28.604Z,64.01
2023-06-24T21:20:32.003Z,64.48
2023-06-24T21:24:38.032Z,64.29
2023-06-24T21:28:41.266Z,64.83
2023-06-24T21:32:44.300Z,64.70
2023-06-24T21:36:47.523Z,64.80
2023-06-24T21:40:52.601Z,64.94
2023-06-24T21:44:56.085Z,65.39
2023-06-24T21:49:00.407Z,65.59
2023-06-24T21:53:03.979Z,65.87
2023-06-24T21:57:08.751Z,65.87
2023-06-24T22:01:13.543Z,66.17
2023-06-24T22:05:29.008Z,66.23
2023-06-24T22:09:38.013Z,65.99
2023-06-24T22:13:42.341Z,66.04
2023-06-24T22:17:45.830Z,66.20
2023-06-24T22:21:49.669Z,66.62
2023-06-24T22:25:53.282Z,67.06
2023-06-24T22:29:58.014Z,67.32
2023-06-24T22:34:01.227Z,67.72
2023-06-24T22:38:04.527Z,67.95
2023-06-24T22:42:08.342Z,68.50
2023-06-24T22:46:12.801Z,68.38
2023-06-24T22:50:16.080Z,68.60
2023-06-24T22:54:19.682Z,68.33
2023-06-24T22:58:23.178Z,68.55
2023-06-24T23:02:28.378Z,67.78
2023-06-24T23:06:32.509Z,68.71
2023-06-24T23:10:36.229Z,68.39
2023-06-24T23:14:40.532Z,68.41
2023-06-24T23:18:47.750Z,68.49
2023-06-24T23:22:56.283Z,68.89
2023-06-24T23:27:01.703Z,69.31
2023-06-24T23:31:06.504Z,68.81
2023-06-24T23:35:13.930Z,68.95
2023-06-24T23:39:18.089Z,69.50
2023-06-24T23:43:21.899Z,69.56
2023-06-24T23:47:25.948Z,70.04
2023-06-24T23:51:32.326Z,69.84
2023-06-24T23:55:37.536Z,70.06
2023-06-24T23:59:40.763Z,69.92
